Time;durP1;ratioP1;P1;durP2;ratioP2;P2;SDS_P1;SDS_P2;PMS_P1;PMS_P2;Temp;Humidity;BMP_temperature;BMP_pressure;BME280_temperature;BME280_humidity;BME280_pressure;Samples;Min_cycle;Max_cycle;Signal;HPM_P1;HPM_P2
2023/10/20 00:01:15;;;;;;;8.60;5.00;;;17.80;99.90;;;;;;5071437;28;20187;-90
2023/10/20 00:03:42;;;;;;;9.57;5.87;;;17.70;99.90;;;;;;5055620;28;20641;-90
2023/10/20 00:06:08;;;;;;;9.83;5.90;;;17.80;99.90;;;;;;5057215;28;20544;-90
2023/10/20 00:08:34;;;;;;;8.83;5.37;;;17.80;99.90;;;;;;5068856;28;20349;-90
2023/10/20 00:11:07;;;;;;;9.63;5.53;;;17.80;99.90;;;;;;5065541;28;20393;-90
2023/10/20 00:13:33;;;;;;;8.73;5.50;;;17.70;99.90;;;;;;5071545;28;20213;-90
2023/10/20 00:15:59;;;;;;;8.97;4.93;;;17.80;99.90;;;;;;5061538;28;20425;-90
2023/10/20 00:18:24;;;;;;;10.10;5.60;;;17.80;99.90;;;;;;5058764;28;20278;-90
2023/10/20 00:20:51;;;;;;;9.83;5.60;;;17.80;99.90;;;;;;5069378;28;20537;-89
2023/10/20 00:23:16;;;;;;;9.27;5.50;;;17.80;99.90;;;;;;5063804;28;20211;-90
2023/10/20 00:25:44;;;;;;;9.00;5.40;;;17.80;99.90;;;;;;5073281;28;20212;-90
2023/10/20 00:28:09;;;;;;;9.60;5.37;;;17.80;99.90;;;;;;5063782;28;20244;-90
2023/10/20 00:30:36;;;;;;;9.07;5.40;;;17.80;99.90;;;;;;5074103;28;20164;-89
2023/10/20 00:33:01;;;;;;;7.30;4.90;;;17.80;99.90;;;;;;5065775;28;20552;-90
2023/10/20 00:35:27;;;;;;;7.60;5.03;;;17.80;99.90;;;;;;5054827;28;20538;-90
2023/10/20 00:37:53;;;;;;;9.40;5.30;;;17.70;99.90;;;;;;5073110;28;20179;-90
2023/10/20 00:40:20;;;;;;;8.57;5.00;;;17.70;99.90;;;;;;5056266;28;20179;-90
2023/10/20 00:42:45;;;;;;;7.53;4.63;;;17.70;99.90;;;;;;5069592;28;20461;-89
2023/10/20 00:45:11;;;;;;;8.90;5.03;;;17.70;99.90;;;;;;5056603;28;20550;-89
2023/10/20 00:47:39;;;;;;;7.50;5.13;;;17.70;99.90;;;;;;5058406;28;20252;-88
2023/10/20 00:50:11;;;;;;;8.13;4.70;;;17.70;99.90;;;;;;5052520;28;20181;-89
2023/10/20 00:52:37;;;;;;;7.83;4.60;;;17.70;99.90;;;;;;5056010;28;20446;-89
2023/10/20 00:55:07;;;;;;;7.23;4.30;;;17.70;99.90;;;;;;5054086;28;20176;-88
2023/10/20 00:57:34;;;;;;;7.20;4.87;;;17.70;99.90;;;;;;5052333;28;20236;-88
2023/10/20 01:00:00;;;;;;;7.10;4.80;;;17.70;99.90;;;;;;5056725;28;20173;-89
2023/10/20 01:02:25;;;;;;;7.97;5.00;;;17.70;99.90;;;;;;5045872;28;20190;-89
2023/10/20 01:04:51;;;;;;;8.10;4.63;;;17.70;99.90;;;;;;5073075;28;20344;-89
2023/10/20 01:07:18;;;;;;;6.87;4.33;;;17.70;99.90;;;;;;5070083;28;20266;-89
2023/10/20 01:09:43;;;;;;;7.60;4.77;;;17.70;99.90;;;;;;5060292;28;20207;-89
2023/10/20 01:12:09;;;;;;;10.27;4.77;;;17.70;99.90;;;;;;5040054;28;20187;-89
2023/10/20 01:14:35;;;;;;;6.63;4.37;;;17.70;99.90;;;;;;5062021;28;20182;-88
2023/10/20 01:17:03;;;;;;;6.87;4.47;;;17.70;99.90;;;;;;5073170;28;20306;-88
2023/10/20 01:19:28;;;;;;;7.33;4.47;;;17.70;99.90;;;;;;5065794;28;20299;-89
2023/10/20 01:21:54;;;;;;;7.77;4.53;;;17.70;99.90;;;;;;5055153;28;20271;-88
2023/10/20 01:24:19;;;;;;;6.60;4.20;;;17.70;99.90;;;;;;5068932;28;20172;-89
2023/10/20 01:26:45;;;;;;;6.97;4.40;;;17.70;99.90;;;;;;5055941;28;20277;-89
2023/10/20 01:29:12;;;;;;;6.70;4.47;;;17.70;99.90;;;;;;5070630;28;20202;-89
2023/10/20 01:31:38;;;;;;;5.77;3.93;;;17.70;99.90;;;;;;5035168;28;20275;-89
2023/10/20 01:34:05;;;;;;;5.83;4.00;;;17.70;99.90;;;;;;5074317;28;20191;-89
2023/10/20 01:36:30;;;;;;;6.50;4.17;;;17.70;99.90;;;;;;5052090;28;20227;-89
2023/10/20 01:38:56;;;;;;;6.77;4.27;;;17.70;99.90;;;;;;5052059;28;20536;-89
2023/10/20 01:41:22;;;;;;;7.43;4.43;;;17.70;99.90;;;;;;5069656;28;20167;-89
2023/10/20 01:43:48;;;;;;;7.43;4.13;;;17.70;99.90;;;;;;5065110;28;20587;-88
2023/10/20 01:46:14;;;;;;;6.30;4.20;;;17.70;99.90;;;;;;5058347;28;20170;-88
2023/10/20 01:48:41;;;;;;;7.77;4.13;;;17.70;99.90;;;;;;5071764;28;20205;-88
2023/10/20 01:51:07;;;;;;;6.60;4.50;;;17.70;99.90;;;;;;5056867;28;20432;-88
2023/10/20 01:53:32;;;;;;;6.03;4.00;;;17.70;99.90;;;;;;5058050;28;20172;-88
2023/10/20 01:55:58;;;;;;;5.93;4.00;;;17.70;99.90;;;;;;5063841;28;20314;-88
2023/10/20 01:58:24;;;;;;;4.90;3.43;;;17.70;99.90;;;;;;5074289;28;20187;-88
2023/10/20 02:00:50;;;;;;;6.33;3.83;;;17.70;99.90;;;;;;5062552;28;20217;-88
2023/10/20 02:03:17;;;;;;;5.07;4.00;;;17.70;99.90;;;;;;5074346;28;20198;-88
2023/10/20 02:05:43;;;;;;;5.40;3.87;;;17.70;99.90;;;;;;5066780;28;20199;-87
2023/10/20 02:08:10;;;;;;;6.03;3.90;;;17.70;99.90;;;;;;5054292;28;20196;-87
2023/10/20 02:10:36;;;;;;;6.23;4.20;;;17.70;99.90;;;;;;5067293;28;20545;-88
2023/10/20 02:13:03;;;;;;;5.57;3.60;;;17.70;99.90;;;;;;5053820;28;20169;-88
2023/10/20 02:15:29;;;;;;;5.53;3.43;;;17.70;99.90;;;;;;5066060;28;20454;-88
2023/10/20 02:17:58;;;;;;;4.87;3.53;;;17.70;99.90;;;;;;5073037;28;20576;-87
2023/10/20 02:20:25;;;;;;;5.07;3.83;;;17.60;99.90;;;;;;5062364;28;20183;-88
2023/10/20 02:22:52;;;;;;;5.00;3.63;;;17.70;99.90;;;;;;5066477;28;20199;-87
2023/10/20 02:25:19;;;;;;;5.20;3.70;;;17.60;99.90;;;;;;5065237;28;20230;-88
2023/10/20 02:27:47;;;;;;;6.33;3.83;;;17.60;99.90;;;;;;5034598;28;20273;-88
2023/10/20 02:30:14;;;;;;;5.30;3.50;;;17.60;99.90;;;;;;5045253;28;20476;-88
2023/10/20 02:32:41;;;;;;;5.23;3.40;;;17.70;99.90;;;;;;5058471;28;20223;-88
2023/10/20 02:35:08;;;;;;;4.27;3.33;;;17.60;99.90;;;;;;5039774;28;20172;-88
2023/10/20 02:37:34;;;;;;;7.07;3.80;;;17.70;99.90;;;;;;5063402;28;20211;-88
2023/10/20 02:40:04;;;;;;;5.13;3.67;;;17.70;99.90;;;;;;5054841;28;20180;-89
2023/10/20 02:42:33;;;;;;;5.07;3.40;;;17.70;99.90;;;;;;5062047;28;20258;-88
2023/10/20 02:44:59;;;;;;;4.67;3.40;;;17.70;99.90;;;;;;5072466;28;20573;-88
2023/10/20 02:47:24;;;;;;;4.70;3.57;;;17.70;99.90;;;;;;5043874;28;20175;-88
2023/10/20 02:49:58;;;;;;;4.80;3.57;;;17.60;99.90;;;;;;5072559;28;20270;-88
2023/10/20 02:52:24;;;;;;;5.00;3.47;;;17.70;99.90;;;;;;5060849;28;20459;-88
2023/10/20 02:54:54;;;;;;;5.17;3.30;;;17.70;99.90;;;;;;5073137;28;20182;-88
2023/10/20 02:57:20;;;;;;;4.20;3.10;;;17.70;99.90;;;;;;5058181;28;20211;-89
2023/10/20 02:59:47;;;;;;;4.03;3.10;;;17.70;99.90;;;;;;5072607;28;20182;-89
2023/10/20 03:02:15;;;;;;;5.67;3.60;;;17.60;99.90;;;;;;5058742;28;20264;-87
2023/10/20 03:04:41;;;;;;;5.40;3.70;;;17.60;99.90;;;;;;5071024;28;20253;-87
2023/10/20 03:07:08;;;;;;;4.50;3.47;;;17.60;99.90;;;;;;5062491;28;20171;-87
2023/10/20 03:09:35;;;;;;;4.23;3.17;;;17.60;99.90;;;;;;5070869;28;20270;-89
2023/10/20 03:12:01;;;;;;;4.00;3.27;;;17.60;99.90;;;;;;5069805;28;20164;-88
2023/10/20 03:14:27;;;;;;;3.77;3.00;;;17.70;99.90;;;;;;5070501;28;20217;-88
2023/10/20 03:16:52;;;;;;;4.73;3.40;;;17.60;99.90;;;;;;5070438;28;20215;-88
2023/10/20 03:19:18;;;;;;;5.67;3.40;;;17.70;99.90;;;;;;5066802;28;20445;-88
2023/10/20 03:21:43;;;;;;;4.03;3.30;;;17.60;99.90;;;;;;5073150;28;20454;-88
2023/10/20 03:24:09;;;;;;;4.03;3.00;;;17.60;99.90;;;;;;5061070;28;20176;-88
2023/10/20 03:26:35;;;;;;;4.17;2.93;;;17.60;99.90;;;;;;5056753;28;20169;-88
2023/10/20 03:29:01;;;;;;;4.40;3.00;;;17.60;99.90;;;;;;5063192;28;20270;-88
2023/10/20 03:31:26;;;;;;;4.93;3.30;;;17.60;99.90;;;;;;5074932;28;20175;-88
2023/10/20 03:33:52;;;;;;;5.23;3.10;;;17.60;99.90;;;;;;5064131;28;20186;-88
2023/10/20 03:36:18;;;;;;;4.03;3.10;;;17.60;99.90;;;;;;5076355;28;20210;-89
2023/10/20 03:38:43;;;;;;;4.20;3.03;;;17.60;99.90;;;;;;5065245;28;20168;-88
2023/10/20 03:41:10;;;;;;;4.03;3.10;;;17.60;99.90;;;;;;5063785;28;20330;-88
2023/10/20 03:43:36;;;;;;;3.63;3.23;;;17.60;99.90;;;;;;5061083;28;20266;-88
2023/10/20 03:46:05;;;;;;;3.47;2.87;;;17.60;99.90;;;;;;5070617;28;20481;-88
2023/10/20 03:48:33;;;;;;;4.60;2.90;;;17.60;99.90;;;;;;5064119;28;20172;-88
2023/10/20 03:50:59;;;;;;;7.60;2.90;;;17.60;99.90;;;;;;5056748;28;20176;-88
2023/10/20 03:53:32;;;;;;;4.17;3.13;;;17.60;99.90;;;;;;5060522;28;20183;-88
2023/10/20 03:56:00;;;;;;;3.80;2.83;;;17.60;99.90;;;;;;5056206;28;20204;-88
2023/10/20 03:58:29;;;;;;;3.57;2.80;;;17.60;99.90;;;;;;5056665;28;20429;-88
2023/10/20 04:00:57;;;;;;;3.60;2.83;;;17.60;99.90;;;;;;5068423;28;20195;-88
2023/10/20 04:03:27;;;;;;;5.17;3.00;;;17.60;99.90;;;;;;5069392;28;20260;-88
2023/10/20 04:05:53;;;;;;;4.40;3.17;;;17.60;99.90;;;;;;5063411;28;20305;-88
2023/10/20 04:08:19;;;;;;;3.73;3.10;;;17.60;99.90;;;;;;5057903;28;20176;-89
2023/10/20 04:10:45;;;;;;;4.67;3.17;;;17.60;99.90;;;;;;5067304;28;20215;-88
2023/10/20 04:13:12;;;;;;;3.53;3.10;;;17.60;99.90;;;;;;5057722;28;20207;-88
2023/10/20 04:15:42;;;;;;;3.80;3.00;;;17.60;99.90;;;;;;5066060;28;20183;-88
2023/10/20 04:18:08;;;;;;;4.43;3.00;;;17.60;99.90;;;;;;5054766;28;20203;-89
2023/10/20 04:20:39;;;;;;;3.13;2.70;;;17.60;99.90;;;;;;5064204;28;20172;-88
2023/10/20 04:23:07;;;;;;;3.40;2.93;;;17.60;99.90;;;;;;5052508;28;20175;-89
2023/10/20 04:25:52;;;;;;;4.10;2.80;;;17.60;99.90;;;;;;5059072;28;20172;-89
2023/10/20 04:28:20;;;;;;;3.67;2.77;;;17.60;99.90;;;;;;5071269;28;20370;-89
2023/10/20 04:57:50;;;;;;;4.93;3.10;;;17.50;99.90;;;;;;5060042;28;20590;-87
2023/10/20 05:00:41;;;;;;;3.57;2.83;;;17.50;99.90;;;;;;5054073;28;20203;-88
2023/10/20 05:03:25;;;;;;;3.27;2.70;;;17.50;99.90;;;;;;5054216;28;20165;-87
2023/10/20 05:05:59;;;;;;;3.60;2.90;;;17.50;99.90;;;;;;5053202;28;20451;-87
2023/10/20 05:08:25;;;;;;;4.77;3.20;;;17.50;99.90;;;;;;5066913;28;20163;-87
2023/10/20 05:10:52;;;;;;;4.23;3.13;;;17.50;99.90;;;;;;5060390;28;20242;-87
2023/10/20 05:13:19;;;;;;;5.10;3.10;;;17.50;99.90;;;;;;5056454;28;20361;-87
2023/10/20 05:15:45;;;;;;;3.73;2.90;;;17.50;99.90;;;;;;5064373;28;20281;-87
2023/10/20 05:18:11;;;;;;;3.17;2.70;;;17.50;99.90;;;;;;5059287;28;20569;-87
2023/10/20 05:20:40;;;;;;;4.60;2.90;;;17.50;99.90;;;;;;5064603;28;20163;-87
2023/10/20 05:23:07;;;;;;;3.27;2.73;;;17.50;99.90;;;;;;5056249;28;20179;-88
2023/10/20 05:25:34;;;;;;;3.80;2.80;;;17.50;99.90;;;;;;5065006;28;20164;-87
2023/10/20 05:28:00;;;;;;;3.97;2.97;;;17.50;99.90;;;;;;5056289;28;20203;-87
2023/10/20 05:30:26;;;;;;;3.33;2.77;;;17.50;99.90;;;;;;5064880;28;20160;-87
2023/10/20 05:32:52;;;;;;;3.60;2.90;;;17.50;99.90;;;;;;5049629;28;20184;-87
2023/10/20 05:35:17;;;;;;;5.10;3.10;;;17.50;99.90;;;;;;5045413;28;20241;-87
2023/10/20 05:37:43;;;;;;;4.50;3.20;;;17.50;99.90;;;;;;5053598;28;20356;-87
2023/10/20 05:40:09;;;;;;;4.10;3.07;;;17.50;99.90;;;;;;5043186;28;20175;-87
2023/10/20 05:42:35;;;;;;;3.23;2.90;;;17.50;99.90;;;;;;5056319;28;20174;-87
2023/10/20 05:45:09;;;;;;;4.93;3.00;;;17.50;99.90;;;;;;5040206;28;20169;-87
2023/10/20 05:47:38;;;;;;;4.60;3.40;;;17.50;99.90;;;;;;5050023;28;20171;-87
2023/10/20 05:50:05;;;;;;;5.80;3.40;;;17.50;99.90;;;;;;5044517;28;20207;-87
2023/10/20 05:52:30;;;;;;;3.63;2.70;;;17.50;99.90;;;;;;5051716;28;20328;-87
2023/10/20 05:54:59;;;;;;;5.57;3.07;;;17.50;99.90;;;;;;5044744;28;20245;-87
2023/10/20 05:57:25;;;;;;;3.80;3.20;;;17.50;99.90;;;;;;5041452;28;20183;-86
2023/10/20 05:59:51;;;;;;;4.53;3.23;;;17.50;99.90;;;;;;5050846;28;20792;-87
2023/10/20 06:02:17;;;;;;;3.53;3.17;;;17.50;99.90;;;;;;5045610;28;20196;-87
2023/10/20 06:04:44;;;;;;;4.27;2.97;;;17.50;99.90;;;;;;5047747;28;20745;-87
2023/10/20 06:07:09;;;;;;;3.90;2.70;;;17.50;99.90;;;;;;5028286;28;20325;-87
2023/10/20 06:09:35;;;;;;;3.57;2.93;;;17.50;99.90;;;;;;5050838;28;20173;-88
2023/10/20 06:12:01;;;;;;;4.13;2.73;;;17.50;99.90;;;;;;5028234;28;20176;-88
2023/10/20 06:14:27;;;;;;;3.60;3.00;;;17.50;99.90;;;;;;5054679;28;20177;-87
2023/10/20 06:16:53;;;;;;;3.70;3.00;;;17.50;99.90;;;;;;5045159;28;20597;-88
2023/10/20 06:19:19;;;;;;;4.53;2.93;;;17.50;99.90;;;;;;5047250;28;20172;-88
2023/10/20 06:21:45;;;;;;;3.17;2.87;;;17.50;99.90;;;;;;5063792;28;20268;-87
2023/10/20 06:24:11;;;;;;;4.40;2.60;;;17.50;99.90;;;;;;5051387;28;20570;-87
2023/10/20 06:26:37;;;;;;;5.23;3.00;;;17.50;99.90;;;;;;5063276;28;20484;-87
2023/10/20 06:29:23;;;;;;;4.00;3.10;;;17.50;99.90;;;;;;5046428;28;20173;-87
2023/10/20 06:31:57;;;;;;;3.53;2.50;;;17.50;99.90;;;;;;5043113;28;20172;-87
2023/10/20 06:34:23;;;;;;;4.70;2.80;;;17.50;99.90;;;;;;5053617;28;20209;-87
2023/10/20 06:37:28;;;;;;;3.00;2.70;;;17.50;99.90;;;;;;5044038;28;20656;-87
2023/10/20 06:39:44;;;;;;;3.90;3.07;;;17.50;99.90;;;;;;5053846;28;20417;-87
2023/10/20 06:42:09;;;;;;;3.50;3.10;;;17.50;99.90;;;;;;5043033;28;20202;-87
2023/10/20 06:44:35;;;;;;;3.20;2.60;;;17.50;99.90;;;;;;5056209;28;20452;-87
2023/10/20 06:47:01;;;;;;;3.37;2.93;;;17.50;99.90;;;;;;5047771;28;20257;-88
2023/10/20 06:49:27;;;;;;;3.10;2.80;;;17.50;99.90;;;;;;5057604;28;20218;-86
2023/10/20 06:51:54;;;;;;;3.10;2.80;;;17.50;99.90;;;;;;5052685;28;20168;-87
2023/10/20 06:54:20;;;;;;;4.37;3.00;;;17.50;99.90;;;;;;5053460;28;20297;-87
2023/10/20 06:56:50;;;;;;;4.30;2.53;;;17.50;99.90;;;;;;5055022;28;20215;-87
2023/10/20 06:59:16;;;;;;;4.20;2.60;;;17.50;99.90;;;;;;5051464;28;20167;-87
2023/10/20 07:01:43;;;;;;;2.90;2.57;;;17.50;99.90;;;;;;5055957;28;20238;-87
2023/10/20 07:04:08;;;;;;;3.17;2.87;;;17.50;99.90;;;;;;5051938;28;20173;-86
2023/10/20 07:06:38;;;;;;;3.17;2.70;;;17.50;99.90;;;;;;5057308;28;20495;-86
2023/10/20 07:09:11;;;;;;;3.30;2.90;;;17.50;99.90;;;;;;5050502;28;20513;-87
2023/10/20 07:11:44;;;;;;;5.13;3.00;;;17.50;99.90;;;;;;5056182;28;20270;-87
2023/10/20 07:14:13;;;;;;;3.10;2.80;;;17.50;99.90;;;;;;5067910;28;20402;-87
2023/10/20 07:16:39;;;;;;;4.03;2.77;;;17.50;99.90;;;;;;5057125;28;20612;-87
2023/10/20 07:19:06;;;;;;;2.47;2.27;;;17.50;99.90;;;;;;5068290;28;20178;-87
2023/10/20 07:21:32;;;;;;;3.37;2.63;;;17.50;99.90;;;;;;5054770;28;20501;-87
2023/10/20 07:23:58;;;;;;;3.37;2.67;;;17.50;99.90;;;;;;5048355;28;20271;-87
2023/10/20 07:26:24;;;;;;;3.30;3.00;;;17.50;99.90;;;;;;5061983;28;20328;-86
2023/10/20 07:28:50;;;;;;;3.73;2.60;;;17.50;99.90;;;;;;5045307;28;20298;-86
2023/10/20 07:31:30;;;;;;;3.37;2.50;;;17.50;99.90;;;;;;5060512;28;20171;-87
2023/10/20 07:33:56;;;;;;;2.97;2.37;;;17.50;99.90;;;;;;5051469;28;20524;-87
2023/10/20 07:36:31;;;;;;;2.57;2.37;;;17.50;99.90;;;;;;5064510;28;20619;-87
2023/10/20 07:38:56;;;;;;;3.43;2.53;;;17.50;99.90;;;;;;5026133;28;20267;-87
2023/10/20 07:41:22;;;;;;;2.50;2.30;;;17.50;99.90;;;;;;5039772;28;20233;-87
2023/10/20 07:43:51;;;;;;;2.80;2.50;;;17.50;99.90;;;;;;5069417;28;20517;-87
2023/10/20 07:46:17;;;;;;;2.77;2.30;;;17.50;99.90;;;;;;5058012;28;20278;-87
2023/10/20 07:48:43;;;;;;;3.47;2.70;;;17.50;99.90;;;;;;5065008;28;20230;-87
2023/10/20 07:51:09;;;;;;;2.57;2.37;;;17.50;99.90;;;;;;5073450;28;20172;-87
2023/10/20 07:53:34;;;;;;;2.30;2.03;;;17.50;99.90;;;;;;5055817;28;20559;-86
2023/10/20 07:56:03;;;;;;;2.83;2.50;;;17.50;99.90;;;;;;5053474;28;20468;-88
2023/10/20 07:58:28;;;;;;;3.40;2.40;;;17.50;99.90;;;;;;5057271;28;20172;-88
2023/10/20 08:00:54;;;;;;;2.63;2.40;;;17.50;99.90;;;;;;5048102;28;20165;-88
2023/10/20 08:03:29;;;;;;;2.77;2.57;;;17.50;99.90;;;;;;5057003;28;20179;-88
2023/10/20 08:05:58;;;;;;;2.97;2.67;;;17.50;99.90;;;;;;5048884;28;20310;-88
2023/10/20 08:08:25;;;;;;;3.73;2.60;;;17.50;99.90;;;;;;5061293;28;20163;-88
2023/10/20 08:10:52;;;;;;;2.40;2.20;;;17.50;99.90;;;;;;5067870;28;20171;-86
2023/10/20 08:13:18;;;;;;;2.40;2.20;;;17.50;99.90;;;;;;5051877;28;20179;-86
2023/10/20 08:16:03;;;;;;;2.83;2.30;;;17.50;99.90;;;;;;5050248;28;20177;-86
2023/10/20 08:18:37;;;;;;;2.83;2.13;;;17.40;99.90;;;;;;5057742;28;20176;-86
2023/10/20 08:21:16;;;;;;;2.30;2.03;;;17.50;99.90;;;;;;5050582;28;20176;-86
2023/10/20 08:23:43;;;;;;;4.30;2.13;;;17.50;99.90;;;;;;5073477;28;20270;-86
2023/10/20 08:26:19;;;;;;;2.13;1.90;;;17.50;99.90;;;;;;5051648;28;20273;-86
2023/10/20 08:28:45;;;;;;;2.30;2.10;;;17.40;99.90;;;;;;5054594;28;20169;-86
2023/10/20 08:31:25;;;;;;;2.07;1.77;;;17.40;99.90;;;;;;5029467;28;20203;-87
2023/10/20 08:33:58;;;;;;;2.10;1.90;;;17.40;99.90;;;;;;5056328;28;20837;-86
2023/10/20 08:36:24;;;;;;;2.77;2.10;;;17.50;99.90;;;;;;5069443;28;20195;-85
2023/10/20 08:38:51;;;;;;;2.10;1.90;;;17.50;99.90;;;;;;5051254;28;20354;-85
2023/10/20 08:41:22;;;;;;;3.20;1.93;;;17.40;99.90;;;;;;5055030;28;20337;-84
2023/10/20 08:43:49;;;;;;;2.37;1.90;;;17.40;99.90;;;;;;5055232;28;20171;-85
2023/10/20 08:46:17;;;;;;;1.80;1.70;;;17.40;99.90;;;;;;5044311;28;20237;-86
2023/10/20 08:48:44;;;;;;;2.07;1.87;;;17.40;99.90;;;;;;5049682;28;20176;-86
2023/10/20 08:51:12;;;;;;;2.13;1.93;;;17.40;99.90;;;;;;5065825;28;20359;-86
2023/10/20 08:53:38;;;;;;;1.93;1.73;;;17.40;99.90;;;;;;5057773;28;20177;-86
2023/10/20 08:56:06;;;;;;;2.23;1.70;;;17.40;99.90;;;;;;5061196;28;20331;-86
2023/10/20 08:58:33;;;;;;;1.67;1.50;;;17.40;99.90;;;;;;5060294;28;20168;-86
2023/10/20 09:01:10;;;;;;;1.60;1.50;;;17.40;99.90;;;;;;5063147;28;20236;-87
2023/10/20 09:03:56;;;;;;;1.80;1.60;;;17.40;99.90;;;;;;5064580;28;20175;-87
2023/10/20 09:06:26;;;;;;;1.67;1.57;;;17.40;99.90;;;;;;5063015;28;20430;-87
2023/10/20 09:08:51;;;;;;;2.10;1.70;;;17.40;99.90;;;;;;5053932;28;20184;-87
2023/10/20 09:11:25;;;;;;;1.70;1.60;;;17.50;99.90;;;;;;5063988;28;20176;-87
2023/10/20 09:14:02;;;;;;;2.90;1.60;;;17.50;99.90;;;;;;5062190;28;20461;-87
2023/10/20 09:16:27;;;;;;;1.80;1.60;;;17.40;99.90;;;;;;5054422;28;20207;-86
2023/10/20 09:19:03;;;;;;;2.07;1.83;;;17.50;99.90;;;;;;5051490;28;20169;-87
2023/10/20 09:21:29;;;;;;;2.00;1.80;;;17.40;99.90;;;;;;5051911;28;20438;-87
2023/10/20 09:24:07;;;;;;;1.90;1.70;;;17.40;99.90;;;;;;5039795;28;20577;-87
2023/10/20 09:26:39;;;;;;;1.70;1.60;;;17.40;99.90;;;;;;5051932;28;20199;-88
2023/10/20 09:29:06;;;;;;;3.03;1.63;;;17.50;99.90;;;;;;5039813;28;20437;-87
2023/10/20 09:31:35;;;;;;;2.03;1.83;;;17.40;99.90;;;;;;5057401;28;20483;-86
2023/10/20 09:34:04;;;;;;;2.00;1.80;;;17.50;99.90;;;;;;5052693;28;20607;-86
2023/10/20 09:36:31;;;;;;;1.77;1.60;;;17.40;99.90;;;;;;5052843;28;20203;-86
2023/10/20 09:38:58;;;;;;;2.73;1.70;;;17.40;99.90;;;;;;5045176;28;20290;-87
2023/10/20 09:41:27;;;;;;;3.77;1.80;;;17.40;99.90;;;;;;5053252;28;20169;-87
2023/10/20 09:44:08;;;;;;;1.70;1.60;;;17.40;99.90;;;;;;5050248;28;20180;-87
2023/10/20 09:47:19;;;;;;;1.83;1.60;;;17.50;99.90;;;;;;5057192;28;20445;-85
2023/10/20 09:49:45;;;;;;;2.80;1.80;;;17.50;99.90;;;;;;5052614;28;20179;-87
2023/10/20 09:52:13;;;;;;;2.33;2.00;;;17.50;99.90;;;;;;5053080;28;20195;-87
2023/10/20 09:54:40;;;;;;;3.57;1.90;;;17.50;99.90;;;;;;5039481;28;20328;-87
2023/10/20 09:57:06;;;;;;;2.07;1.80;;;17.50;99.90;;;;;;5048576;28;20358;-86
2023/10/20 09:59:37;;;;;;;1.70;1.60;;;17.40;99.90;;;;;;5052730;28;20450;-87
2023/10/20 10:02:03;;;;;;;2.37;1.70;;;17.50;99.90;;;;;;5061461;28;20230;-87
2023/10/20 10:04:36;;;;;;;2.93;1.67;;;17.50;99.90;;;;;;5048713;28;20199;-86
2023/10/20 10:07:15;;;;;;;2.07;1.70;;;17.40;99.90;;;;;;5064450;28;20164;-86
2023/10/20 10:09:49;;;;;;;1.97;1.70;;;17.40;99.90;;;;;;5067414;28;20243;-87
2023/10/20 10:12:30;;;;;;;2.10;1.80;;;17.50;99.90;;;;;;5040027;28;20167;-86
2023/10/20 10:15:07;;;;;;;1.70;1.60;;;17.40;99.90;;;;;;5068958;28;20675;-87
2023/10/20 10:17:51;;;;;;;1.80;1.57;;;17.50;99.90;;;;;;5054993;28;20622;-87
2023/10/20 10:20:43;;;;;;;1.77;1.53;;;17.50;99.90;;;;;;5067007;28;20172;-87
2023/10/20 10:23:14;;;;;;;3.50;1.63;;;17.50;99.90;;;;;;5046323;28;20295;-87
2023/10/20 10:25:50;;;;;;;1.60;1.50;;;17.50;99.90;;;;;;5067298;28;20418;-87
2023/10/20 10:28:20;;;;;;;2.00;1.70;;;17.50;99.90;;;;;;5054601;28;20175;-87
2023/10/20 10:30:51;;;;;;;1.70;1.60;;;17.50;99.90;;;;;;5064961;28;20574;-87
2023/10/20 10:33:23;;;;;;;1.93;1.60;;;17.50;99.90;;;;;;5055198;28;20172;-87
2023/10/20 10:36:00;;;;;;;1.80;1.70;;;17.50;99.90;;;;;;5048050;28;20548;-87
2023/10/20 10:38:28;;;;;;;1.77;1.60;;;17.50;99.90;;;;;;5052321;28;20182;-87
2023/10/20 10:40:55;;;;;;;1.40;1.30;;;17.50;99.90;;;;;;5053678;28;20312;-87
2023/10/20 10:43:21;;;;;;;1.77;1.60;;;17.50;99.90;;;;;;5051313;28;20556;-87
2023/10/20 10:45:54;;;;;;;1.40;1.30;;;17.50;99.90;;;;;;5040324;28;20180;-87
2023/10/20 10:48:24;;;;;;;1.73;1.60;;;17.50;99.90;;;;;;5049283;28;20175;-87
2023/10/20 10:50:50;;;;;;;1.60;1.50;;;17.40;99.90;;;;;;5057952;28;20319;-87
2023/10/20 10:53:16;;;;;;;1.57;1.47;;;17.40;99.90;;;;;;5047945;28;20177;-87
2023/10/20 10:55:42;;;;;;;1.83;1.60;;;17.40;99.90;;;;;;5061400;28;20200;-87
2023/10/20 10:58:13;;;;;;;1.70;1.60;;;17.50;99.90;;;;;;5045396;28;20456;-86
2023/10/20 11:00:41;;;;;;;1.40;1.30;;;17.40;99.90;;;;;;5058927;28;20182;-88
2023/10/20 11:03:07;;;;;;;1.90;1.47;;;17.50;99.90;;;;;;5056563;28;20175;-87
2023/10/20 11:05:34;;;;;;;1.90;1.60;;;17.50;99.90;;;;;;5038484;28;20457;-86
2023/10/20 11:08:01;;;;;;;1.93;1.50;;;17.50;99.90;;;;;;5059335;28;20201;-87
2023/10/20 11:10:28;;;;;;;1.97;1.40;;;17.50;99.90;;;;;;5062914;28;20171;-87
2023/10/20 11:13:07;;;;;;;1.50;1.40;;;17.50;99.90;;;;;;5056448;28;20169;-87
2023/10/20 11:15:35;;;;;;;1.63;1.53;;;17.50;99.90;;;;;;5055254;28;20381;-86
2023/10/20 11:18:02;;;;;;;1.70;1.60;;;17.50;99.90;;;;;;5053875;28;20213;-87
2023/10/20 11:20:41;;;;;;;1.63;1.53;;;17.50;99.90;;;;;;5047012;28;20241;-87
2023/10/20 11:23:10;;;;;;;1.50;1.40;;;17.50;99.90;;;;;;5059409;28;20163;-87
2023/10/20 11:25:45;;;;;;;1.70;1.60;;;17.40;99.90;;;;;;5048650;28;20203;-87
2023/10/20 11:28:10;;;;;;;1.63;1.53;;;17.50;99.90;;;;;;5035560;28;20172;-87
2023/10/20 11:30:38;;;;;;;1.53;1.43;;;17.50;99.90;;;;;;5051999;28;20173;-87
2023/10/20 11:33:04;;;;;;;2.17;1.50;;;17.50;99.90;;;;;;5032971;28;20596;-87
2023/10/20 11:35:30;;;;;;;2.67;1.50;;;17.40;99.90;;;;;;5065554;28;20198;-87
2023/10/20 11:38:00;;;;;;;2.00;1.67;;;17.50;99.90;;;;;;5062105;28;20196;-87
2023/10/20 11:40:26;;;;;;;2.00;1.60;;;17.50;99.90;;;;;;5052584;28;20259;-87
2023/10/20 11:43:07;;;;;;;1.60;1.50;;;17.40;99.90;;;;;;5050346;28;20271;-87
2023/10/20 11:45:34;;;;;;;1.60;1.50;;;17.50;99.90;;;;;;5039192;28;20334;-87
2023/10/20 11:48:00;;;;;;;1.70;1.60;;;17.50;99.90;;;;;;5065031;28;20174;-87
2023/10/20 11:50:25;;;;;;;2.53;1.40;;;17.50;99.90;;;;;;5051786;28;20377;-86
2023/10/20 11:52:51;;;;;;;1.70;1.60;;;17.50;99.90;;;;;;5046848;28;20265;-87
2023/10/20 11:55:18;;;;;;;1.97;1.60;;;17.40;99.90;;;;;;5064788;28;20334;-86
2023/10/20 11:57:49;;;;;;;1.77;1.50;;;17.50;99.90;;;;;;5064468;28;20400;-86
2023/10/20 12:00:17;;;;;;;2.00;1.70;;;17.50;99.90;;;;;;5062950;28;20318;-87
2023/10/20 12:02:43;;;;;;;1.77;1.60;;;17.50;99.90;;;;;;5046013;28;20168;-87
2023/10/20 12:05:17;;;;;;;2.50;1.57;;;17.50;99.90;;;;;;5060229;28;20330;-87
2023/10/20 12:07:45;;;;;;;1.60;1.50;;;17.40;99.90;;;;;;5045173;28;20183;-87
2023/10/20 12:10:12;;;;;;;1.63;1.40;;;17.40;99.90;;;;;;5049810;28;20495;-86
2023/10/20 12:12:45;;;;;;;2.03;1.53;;;17.40;99.90;;;;;;5048331;28;20542;-87
2023/10/20 12:15:11;;;;;;;1.60;1.50;;;17.40;99.90;;;;;;5054271;28;20342;-87
2023/10/20 12:17:40;;;;;;;1.50;1.40;;;17.40;99.90;;;;;;5065062;28;20214;-87
2023/10/20 12:20:08;;;;;;;1.57;1.40;;;17.40;99.90;;;;;;5060366;28;20198;-87
2023/10/20 12:22:35;;;;;;;1.47;1.37;;;17.40;99.90;;;;;;5049732;28;20238;-87
2023/10/20 12:25:08;;;;;;;1.50;1.40;;;17.40;99.90;;;;;;5038024;28;20441;-88
2023/10/20 12:27:34;;;;;;;1.60;1.50;;;17.40;99.90;;;;;;5058807;28;20223;-87
2023/10/20 12:30:00;;;;;;;1.40;1.30;;;17.40;99.90;;;;;;5048683;28;20208;-87
2023/10/20 12:32:27;;;;;;;1.60;1.50;;;17.40;99.90;;;;;;5055061;28;20229;-87
2023/10/20 12:35:04;;;;;;;1.50;1.40;;;17.40;99.90;;;;;;5062539;28;20219;-87
2023/10/20 12:37:32;;;;;;;1.77;1.40;;;17.40;99.90;;;;;;5047059;28;20244;-87
2023/10/20 12:39:59;;;;;;;1.57;1.40;;;17.40;99.90;;;;;;5045288;28;20207;-87
2023/10/20 12:42:26;;;;;;;1.53;1.43;;;17.40;99.90;;;;;;5052352;28;20206;-87
2023/10/20 12:44:52;;;;;;;2.00;1.50;;;17.40;99.90;;;;;;5062882;28;20687;-87
2023/10/20 12:47:19;;;;;;;1.67;1.50;;;17.40;99.90;;;;;;5054884;28;20517;-87
2023/10/20 12:49:45;;;;;;;1.67;1.43;;;17.40;99.90;;;;;;5064398;28;20206;-87
2023/10/20 12:52:12;;;;;;;2.27;1.43;;;17.40;99.90;;;;;;5050032;28;20239;-87
2023/10/20 12:54:38;;;;;;;1.43;1.33;;;17.40;99.90;;;;;;5068573;28;20181;-87
2023/10/20 12:57:17;;;;;;;1.33;1.23;;;17.40;99.90;;;;;;5061121;28;20480;-87
2023/10/20 12:59:48;;;;;;;1.40;1.30;;;17.40;99.90;;;;;;5029440;28;20176;-87
2023/10/20 13:02:22;;;;;;;1.43;1.33;;;17.40;99.90;;;;;;5055065;28;20263;-88
2023/10/20 13:04:51;;;;;;;1.57;1.40;;;17.40;99.90;;;;;;5025375;28;20192;-87
2023/10/20 13:07:16;;;;;;;1.60;1.50;;;17.40;99.90;;;;;;5043615;28;20203;-87
2023/10/20 13:09:42;;;;;;;2.87;1.50;;;17.40;99.90;;;;;;5058337;28;20693;-86
2023/10/20 13:12:08;;;;;;;2.00;1.60;;;17.40;99.90;;;;;;5051702;28;20564;-87
2023/10/20 13:14:36;;;;;;;1.60;1.40;;;17.40;99.90;;;;;;5044470;28;20168;-87
2023/10/20 13:17:03;;;;;;;1.40;1.30;;;17.40;99.90;;;;;;5052148;28;20200;-87
2023/10/20 13:19:29;;;;;;;1.57;1.30;;;17.40;99.90;;;;;;5045805;28;20207;-87
2023/10/20 13:21:55;;;;;;;1.90;1.47;;;17.40;99.90;;;;;;5031746;28;20728;-87